TimeHST,TemperatureF,Dew PointF,Humidity,Sea Level PressureIn,VisibilityMPH,Wind Direction,Wind SpeedMPH,Gust SpeedMPH,PrecipitationIn,Events,Conditions,WindDirDegrees,DateUTC
12:54 AM,72.0,64.0,76,30.11,10.0,NE,17.3,23.0,0.00,,Clear,50,2012-12-12 10:54:00
1:54 AM,71.1,64.0,78,30.09,10.0,NE,16.1,-,0.00,Rain,Light Rain,50,2012-12-12 11:54:00
2:54 AM,70.0,64.9,84,30.07,10.0,ENE,11.5,-,0.00,Rain,Light Rain,60,2012-12-12 12:54:00
3:08 AM,69.8,64.4,83,30.05,10.0,NE,13.8,-,0.01,Rain,Light Rain,40,2012-12-12 13:08:00
3:15 AM,69.8,64.4,83,30.05,10.0,NE,15.0,-,0.01,,Scattered Clouds,40,2012-12-12 13:15:00
3:54 AM,70.0,64.0,81,30.06,10.0,NE,13.8,-,0.01,,Clear,50,2012-12-12 13:54:00
4:54 AM,71.1,64.0,78,30.07,10.0,ENE,15.0,23.0,0.00,Rain,Light Rain,60,2012-12-12 14:54:00
5:54 AM,70.0,62.1,76,30.07,10.0,NE,16.1,-,0.00,,Clear,50,2012-12-12 15:54:00
6:54 AM,70.0,63.0,78,30.09,10.0,NE,12.7,-,N/A,,Clear,40,2012-12-12 16:54:00
7:54 AM,72.0,64.9,78,30.12,10.0,NE,11.5,-,N/A,,Clear,40,2012-12-12 17:54:00
8:54 AM,75.0,63.0,66,30.13,10.0,ENE,12.7,-,0.01,,Partly Cloudy,60,2012-12-12 18:54:00
9:54 AM,78.1,63.0,60,30.14,10.0,ENE,13.8,23.0,N/A,,Partly Cloudy,60,2012-12-12 19:54:00
10:54 AM,79.0,62.1,56,30.12,10.0,ENE,18.4,27.6,N/A,,Partly Cloudy,70,2012-12-12 20:54:00
11:54 AM,79.0,62.1,56,30.11,10.0,NE,19.6,29.9,0.00,,Scattered Clouds,50,2012-12-12 21:54:00
12:54 PM,80.1,61.0,52,30.08,10.0,ENE,17.3,29.9,N/A,,Scattered Clouds,70,2012-12-12 22:54:00
1:54 PM,77.0,62.1,60,30.06,10.0,ENE,25.3,35.7,0.00,,Scattered Clouds,70,2012-12-12 23:54:00
2:54 PM,77.0,63.0,62,30.04,10.0,ENE,23.0,35.7,N/A,,Scattered Clouds,70,2012-12-13 00:54:00
3:54 PM,78.1,59.0,52,30.03,10.0,ENE,24.2,34.5,N/A,,Partly Cloudy,60,2012-12-13 01:54:00
4:54 PM,75.0,62.1,64,30.04,10.0,ENE,19.6,32.2,N/A,,Partly Cloudy,70,2012-12-13 02:54:00
5:54 PM,73.9,60.1,62,30.06,10.0,NE,16.1,24.2,N/A,,Partly Cloudy,40,2012-12-13 03:54:00
6:54 PM,73.0,60.1,64,30.07,10.0,ENE,19.6,27.6,N/A,,Scattered Clouds,60,2012-12-13 04:54:00
7:54 PM,73.0,60.1,64,30.09,10.0,ENE,18.4,25.3,N/A,,Partly Cloudy,60,2012-12-13 05:54:00
8:54 PM,73.0,61.0,66,30.10,10.0,NE,18.4,26.5,N/A,,Clear,50,2012-12-13 06:54:00
9:54 PM,73.0,62.1,68,30.12,10.0,NE,16.1,24.2,N/A,,Partly Cloudy,50,2012-12-13 07:54:00
10:54 PM,73.0,64.9,76,30.12,10.0,ENE,17.3,-,N/A,Rain,Light Rain,60,2012-12-13 08:54:00
11:54 PM,72.0,64.0,76,30.11,10.0,NE,16.1,-,N/A,,Partly Cloudy,50,2012-12-13 09:54:00